Time;durP1;ratioP1;P1;durP2;ratioP2;P2;SDS_P1;SDS_P2;PMS_P1;PMS_P2;Temp;Humidity;BMP_temperature;BMP_pressure;BME280_temperature;BME280_humidity;BME280_pressure;Samples;Min_cycle;Max_cycle;Signal;HPM_P1;HPM_P2
2023/07/14 00:00:09;;;;;;;2.90;2.70;;;;;;;17.78;74.36;100104.48;129315;1267;107604;-75
2023/07/14 00:03:37;;;;;;;2.90;2.60;;;;;;;17.78;74.38;100103.59;129389;1271;107515;-75
2023/07/14 00:06:44;;;;;;;3.30;2.90;;;;;;;17.76;74.23;100106.81;129489;1270;107667;-75
2023/07/14 00:09:50;;;;;;;4.30;3.00;;;;;;;17.76;74.28;100105.27;129517;1271;107480;-75
2023/07/14 00:12:55;;;;;;;3.40;2.80;;;;;;;17.77;74.20;100101.47;129497;1270;107470;-75
2023/07/14 00:16:01;;;;;;;2.90;2.70;;;;;;;17.75;74.13;100102.37;129451;1280;107589;-75
2023/07/14 00:19:13;;;;;;;3.80;2.60;;;;;;;17.72;74.25;100100.61;129430;1274;107494;-75
2023/07/14 00:22:18;;;;;;;3.70;2.90;;;;;;;17.71;74.20;100102.95;129446;1270;107668;-75
2023/07/14 00:25:25;;;;;;;3.90;2.50;;;;;;;17.69;74.17;100104.55;129425;1273;108130;-74
2023/07/14 00:28:31;;;;;;;4.10;2.80;;;;;;;17.67;74.26;100109.12;129484;1270;107563;-75
2023/07/14 00:31:37;;;;;;;3.60;2.80;;;;;;;17.66;74.11;100112.11;129355;1270;107459;-75
2023/07/14 00:34:42;;;;;;;3.80;2.40;;;;;;;17.65;74.25;100116.13;129414;1270;107524;-75
2023/07/14 00:37:48;;;;;;;4.70;2.60;;;;;;;17.69;74.37;100115.52;129436;1271;107517;-75
2023/07/14 00:40:54;;;;;;;3.50;2.70;;;;;;;17.70;74.05;100112.48;129316;1280;145216;-75
2023/07/14 00:43:59;;;;;;;3.60;2.90;;;;;;;17.76;74.27;100110.48;129532;1270;107200;-76
2023/07/14 00:47:23;;;;;;;3.10;2.80;;;;;;;17.79;74.16;100115.41;129446;1273;107603;-74
2023/07/14 00:50:35;;;;;;;3.20;2.50;;;;;;;17.79;73.95;100116.73;129490;1275;107392;-75
2023/07/14 00:53:42;;;;;;;3.10;2.80;;;;;;;17.73;73.92;100111.91;129330;1273;105894;-75
2023/07/14 00:56:50;;;;;;;3.90;3.10;;;;;;;17.68;74.08;100110.40;129506;1274;107711;-75
2023/07/14 01:00:04;;;;;;;3.30;3.10;;;;;;;17.70;74.37;100107.50;129530;1281;108042;-75
2023/07/14 01:03:17;;;;;;;3.40;3.00;;;;;;;17.71;74.18;100112.33;129538;1282;107493;-75
2023/07/14 01:06:25;;;;;;;3.30;2.60;;;;;;;17.72;74.26;100116.98;129352;1280;107591;-75
2023/07/14 01:09:32;;;;;;;4.00;2.80;;;;;;;17.74;74.28;100114.49;129403;1270;107473;-75
2023/07/14 01:12:42;;;;;;;3.40;3.00;;;;;;;17.84;74.44;100122.29;129240;1274;107534;-76
2023/07/14 01:15:48;;;;;;;3.50;3.20;;;;;;;17.98;74.59;100120.39;129341;1280;107542;-75
2023/07/14 01:18:53;;;;;;;3.30;2.90;;;;;;;18.14;74.62;100120.16;129287;1271;106067;-75
2023/07/14 01:22:09;;;;;;;5.40;3.30;;;;;;;18.30;74.55;100120.75;129354;1280;107595;-75
2023/07/14 01:25:25;;;;;;;3.50;3.20;;;;;;;18.39;74.47;100122.01;129421;1270;106709;-75
2023/07/14 01:28:30;;;;;;;3.90;3.50;;;;;;;18.45;74.05;100128.95;129481;1270;108626;-75
2023/07/14 01:31:36;;;;;;;4.20;3.60;;;;;;;18.50;74.58;100128.48;129414;1280;107557;-76
2023/07/14 01:34:42;;;;;;;3.60;3.20;;;;;;;18.59;74.34;100127.98;129459;1272;107419;-76
2023/07/14 01:37:47;;;;;;;4.10;3.70;;;;;;;18.61;74.17;100127.29;129427;1272;107506;-75
2023/07/14 01:40:53;;;;;;;3.40;3.00;;;;;;;18.66;74.12;100124.29;129126;1284;107575;-75
2023/07/14 01:44:04;;;;;;;2.90;2.70;;;;;;;18.73;74.17;100122.70;129367;1280;107442;-75
2023/07/14 01:47:12;;;;;;;3.70;3.10;;;;;;;18.77;73.73;100130.92;129471;1281;107628;-76
2023/07/14 01:50:20;;;;;;;3.50;3.20;;;;;;;18.73;73.55;100144.02;129278;1267;105977;-75
2023/07/14 01:53:29;;;;;;;3.10;2.80;;;;;;;18.76;74.08;100150.92;129427;1280;107453;-75
2023/07/14 01:56:37;;;;;;;3.50;3.20;;;;;;;18.89;74.16;100153.48;129529;1267;107580;-75
2023/07/14 01:59:48;;;;;;;3.50;3.00;;;;;;;18.97;73.80;100155.05;129439;1270;107650;-75
2023/07/14 02:02:58;;;;;;;3.60;3.30;;;;;;;19.01;73.74;100163.52;129399;1271;108672;-75
2023/07/14 02:06:04;;;;;;;4.80;3.40;;;;;;;19.03;73.58;100165.02;129516;1280;108651;-75
2023/07/14 02:09:15;;;;;;;4.20;3.60;;;;;;;19.07;73.82;100170.22;129405;1273;107501;-76
2023/07/14 02:12:29;;;;;;;3.40;3.10;;;;;;;19.11;73.68;100176.66;129433;1281;107353;-75
2023/07/14 02:15:36;;;;;;;3.70;3.20;;;;;;;19.18;73.68;100174.15;129392;1281;107279;-75
2023/07/14 02:18:43;;;;;;;4.80;3.20;;;;;;;19.18;73.28;100179.70;129310;1270;107652;-75
2023/07/14 02:21:50;;;;;;;4.30;2.90;;;;;;;19.19;73.31;100188.72;129344;1280;107438;-75
2023/07/14 02:24:57;;;;;;;5.40;3.30;;;;;;;19.30;73.75;100193.02;129350;1270;107564;-75
2023/07/14 02:28:03;;;;;;;4.10;3.50;;;;;;;19.41;73.13;100197.90;129225;1271;107532;-75
2023/07/14 02:31:19;;;;;;;4.70;3.50;;;;;;;19.41;72.84;100202.23;129425;1271;106902;-76
2023/07/14 02:34:27;;;;;;;5.10;3.50;;;;;;;19.39;72.71;100204.89;129491;1280;107413;-76
2023/07/14 02:38:00;;;;;;;4.20;3.80;;;;;;;19.26;71.81;100208.30;129451;1281;107707;-79
2023/07/14 02:41:11;;;;;;;4.70;3.70;;;;;;;18.95;71.62;100206.27;129501;1274;107571;-76
2023/07/14 02:44:19;;;;;;;4.10;3.60;;;;;;;18.68;72.08;100209.53;129516;1271;107475;-75
2023/07/14 02:47:25;;;;;;;4.00;3.60;;;;;;;18.53;72.10;100212.05;129413;1270;106742;-75
2023/07/14 02:50:31;;;;;;;4.20;3.80;;;;;;;18.44;72.12;100211.38;129307;1267;107530;-75
2023/07/14 02:53:37;;;;;;;4.60;4.00;;;;;;;18.36;71.95;100207.58;129400;1284;107565;-75
2023/07/14 02:56:43;;;;;;;4.60;3.40;;;;;;;18.22;71.88;100217.77;129309;1267;107481;-75
2023/07/14 02:59:49;;;;;;;5.50;3.50;;;;;;;18.11;72.11;100218.23;129384;1268;107495;-75
2023/07/14 03:02:55;;;;;;;4.90;3.70;;;;;;;18.08;72.01;100223.47;129287;1279;107553;-75
2023/07/14 03:06:01;;;;;;;4.30;3.80;;;;;;;18.04;72.00;100230.19;129442;1280;108764;-74
2023/07/14 03:09:07;;;;;;;6.40;4.00;;;;;;;17.99;71.89;100233.25;129467;1274;107414;-75
2023/07/14 03:12:12;;;;;;;5.40;3.90;;;;;;;17.87;71.93;100233.86;129211;1280;107553;-75
2023/07/14 03:15:18;;;;;;;6.60;4.20;;;;;;;17.85;72.16;100229.99;129361;1274;107550;-75
2023/07/14 03:18:24;;;;;;;6.30;4.30;;;;;;;17.87;72.13;100233.61;129368;1279;107559;-76
2023/07/14 03:21:29;;;;;;;5.30;4.10;;;;;;;17.86;72.01;100240.02;129298;1273;107518;-74
2023/07/14 03:24:35;;;;;;;7.40;4.20;;;;;;;17.82;72.12;100244.60;129474;1281;107551;-73
2023/07/14 03:27:41;;;;;;;6.50;4.20;;;;;;;17.83;72.18;100246.65;129479;1267;107404;-74
2023/07/14 03:30:46;;;;;;;5.10;3.80;;;;;;;17.89;72.28;100243.59;129512;1274;107567;-73
2023/07/14 03:33:52;;;;;;;6.00;4.10;;;;;;;17.98;72.11;100245.82;129505;1280;107495;-74
2023/07/14 03:36:57;;;;;;;5.00;3.80;;;;;;;18.09;72.12;100249.77;129448;1280;107606;-74
2023/07/14 03:40:05;;;;;;;5.30;4.30;;;;;;;18.25;72.04;100253.41;129442;1267;107652;-73
2023/07/14 03:43:10;;;;;;;7.00;4.80;;;;;;;18.37;71.99;100256.70;129511;1270;107476;-73
2023/07/14 03:46:16;;;;;;;5.50;4.30;;;;;;;18.40;71.81;100264.14;129450;1271;107600;-74
2023/07/14 03:49:22;;;;;;;6.60;3.90;;;;;;;18.46;72.01;100258.77;129506;1270;107612;-74
2023/07/14 03:52:28;;;;;;;4.70;4.10;;;;;;;18.48;71.80;100258.70;129492;1280;107464;-74
2023/07/14 03:55:34;;;;;;;6.80;4.60;;;;;;;18.45;71.50;100262.88;129500;1273;107603;-74
2023/07/14 03:58:41;;;;;;;4.70;4.00;;;;;;;18.39;71.85;100264.52;129367;1267;107260;-74
2023/07/14 04:01:47;;;;;;;4.90;4.10;;;;;;;18.50;71.79;100262.67;129165;1274;107519;-74
2023/07/14 04:04:52;;;;;;;6.40;3.80;;;;;;;18.67;72.09;100265.20;129348;1269;107606;-74
2023/07/14 04:07:58;;;;;;;6.90;3.80;;;;;;;18.90;71.63;100268.91;129474;1281;107598;-74
2023/07/14 04:11:04;;;;;;;5.50;3.80;;;;;;;18.97;70.95;100270.95;129422;1272;107594;-74
2023/07/14 04:14:10;;;;;;;6.90;4.30;;;;;;;18.99;70.87;100272.40;129445;1281;107437;-74
2023/07/14 04:17:16;;;;;;;4.90;3.80;;;;;;;19.05;71.04;100278.82;129353;1270;107664;-75
2023/07/14 04:20:22;;;;;;;6.70;4.10;;;;;;;19.34;70.81;100278.67;129450;1270;107634;-74
2023/07/14 04:23:27;;;;;;;8.00;4.50;;;;;;;19.49;70.43;100281.27;129375;1271;107401;-75
2023/07/14 04:26:33;;;;;;;5.20;4.20;;;;;;;19.72;70.57;100282.56;129401;1281;107525;-75
2023/07/14 04:29:39;;;;;;;4.40;4.00;;;;;;;20.03;70.54;100284.48;129490;1281;107561;-75
2023/07/14 04:32:47;;;;;;;5.50;4.40;;;;;;;20.29;69.62;100285.36;129410;1271;106680;-75
2023/07/14 04:35:54;;;;;;;7.30;4.60;;;;;;;20.22;68.71;100287.48;129530;1281;106359;-75
2023/07/14 04:39:05;;;;;;;5.50;4.20;;;;;;;20.18;69.02;100281.33;129461;1267;107580;-75
2023/07/14 04:42:09;;;;;;;;;;;;;;;20.18;68.91;100288.71;129425;1267;107610;-75
2023/07/14 04:45:16;;;;;;;5.10;4.10;;;;;;;20.25;69.01;100286.13;129380;1270;108008;-75
2023/07/14 04:48:23;;;;;;;4.80;3.40;;;;;;;20.48;68.53;100288.13;129422;1270;107655;-75
2023/07/14 04:51:28;;;;;;;4.20;3.80;;;;;;;20.60;68.68;100284.45;129614;1267;107296;-76
2023/07/14 04:54:35;;;;;;;4.70;4.00;;;;;;;20.77;68.83;100282.89;129522;1273;107662;-75
2023/07/14 04:57:40;;;;;;;4.40;3.50;;;;;;;20.96;67.95;100286.41;129484;1273;106281;-75
2023/07/14 05:00:50;;;;;;;4.60;3.70;;;;;;;21.05;67.83;100295.20;129446;1270;107596;-75
2023/07/14 05:03:55;;;;;;;4.40;4.00;;;;;;;21.03;68.23;100293.63;129488;1281;107523;-75
2023/07/14 05:07:01;;;;;;;6.60;4.10;;;;;;;21.22;68.17;100291.08;129410;1270;106565;-75
2023/07/14 05:10:08;;;;;;;4.40;3.50;;;;;;;21.36;67.27;100292.70;129479;1279;107576;-75
2023/07/14 05:13:13;;;;;;;6.60;4.30;;;;;;;21.23;66.17;100296.73;129468;1270;107613;-75
2023/07/14 05:16:19;;;;;;;7.00;4.20;;;;;;;20.98;66.82;100304.64;129502;1270;107688;-75
2023/07/14 05:19:25;;;;;;;4.70;4.00;;;;;;;21.03;67.09;100307.94;129496;1271;107577;-75
2023/07/14 05:22:31;;;;;;;4.00;3.60;;;;;;;21.12;66.97;100313.83;129504;1282;105762;-75
2023/07/14 05:25:36;;;;;;;6.60;4.30;;;;;;;21.07;66.91;100322.34;129442;1273;107284;-75
2023/07/14 05:28:42;;;;;;;4.50;3.60;;;;;;;21.04;67.46;100322.58;129387;1273;107640;-76
2023/07/14 05:31:47;;;;;;;5.00;4.00;;;;;;;21.26;66.70;100330.80;129369;1270;107637;-75
2023/07/14 05:34:53;;;;;;;5.90;4.70;;;;;;;21.19;66.86;100331.86;129360;1270;108660;-76
2023/07/14 05:37:59;;;;;;;6.30;4.10;;;;;;;21.05;66.39;100329.21;129445;1271;107517;-75
2023/07/14 05:41:08;;;;;;;4.50;4.00;;;;;;;21.03;67.10;100326.80;129499;1270;105600;-76
2023/07/14 05:44:13;;;;;;;4.80;4.10;;;;;;;21.12;66.83;100322.39;129350;1270;107434;-75
2023/07/14 05:47:23;;;;;;;3.90;3.50;;;;;;;21.12;66.40;100322.52;129461;1281;106270;-75
2023/07/14 05:50:29;;;;;;;4.30;3.70;;;;;;;21.28;66.32;100325.85;129254;1267;107597;-75
2023/07/14 05:53:35;;;;;;;4.70;3.40;;;;;;;21.33;66.06;100325.84;129446;1271;107458;-76
2023/07/14 05:56:40;;;;;;;4.30;3.90;;;;;;;21.34;65.37;100327.51;129517;1272;107543;-76
2023/07/14 05:59:46;;;;;;;3.90;3.20;;;;;;;21.24;65.66;100331.34;129383;1267;107649;-75
2023/07/14 06:02:51;;;;;;;5.40;4.10;;;;;;;21.27;65.17;100337.46;129478;1273;107301;-75
2023/07/14 06:05:57;;;;;;;4.80;3.90;;;;;;;21.18;66.10;100333.44;129523;1270;107648;-75
2023/07/14 06:09:04;;;;;;;4.40;3.10;;;;;;;21.34;66.25;100339.41;129491;1268;107536;-76
2023/07/14 06:12:12;;;;;;;5.10;3.60;;;;;;;21.49;65.55;100341.58;129536;1271;107631;-76
2023/07/14 06:15:18;;;;;;;4.10;3.20;;;;;;;21.49;65.63;100343.98;129482;1271;107400;-76
2023/07/14 06:18:24;;;;;;;5.50;3.90;;;;;;;21.57;65.54;100346.67;129541;1271;106580;-75
2023/07/14 06:21:31;;;;;;;3.20;2.90;;;;;;;21.55;65.19;100350.53;129345;1267;105924;-75
2023/07/14 06:24:36;;;;;;;3.30;2.90;;;;;;;21.52;64.55;100356.58;129386;1270;107435;-75
2023/07/14 06:27:42;;;;;;;3.80;2.90;;;;;;;21.45;64.44;100359.89;129456;1270;106987;-76
2023/07/14 06:30:47;;;;;;;4.50;2.70;;;;;;;21.34;62.99;100358.61;129471;1281;107575;-75
2023/07/14 06:33:53;;;;;;;4.00;3.00;;;;;;;21.29;63.36;100360.83;129444;1267;107261;-75
2023/07/14 06:36:58;;;;;;;4.60;2.60;;;;;;;21.26;62.48;100355.56;129449;1270;107557;-76
2023/07/14 06:40:07;;;;;;;3.90;2.50;;;;;;;21.21;62.46;100360.60;129349;1280;107621;-76
2023/07/14 06:43:13;;;;;;;2.50;2.20;;;;;;;21.24;60.82;100358.91;129319;1267;107547;-75
2023/07/14 06:46:20;;;;;;;5.90;2.50;;;;;;;21.18;60.20;100362.63;129252;1267;107649;-74
2023/07/14 06:49:25;;;;;;;5.40;2.30;;;;;;;21.13;60.65;100361.54;129437;1267;107463;-74
2023/07/14 06:52:31;;;;;;;3.40;2.30;;;;;;;21.21;61.17;100359.81;129493;1268;107582;-73
2023/07/14 06:55:38;;;;;;;3.10;2.20;;;;;;;21.26;59.91;100364.41;129594;1272;107585;-73
2023/07/14 06:58:44;;;;;;;4.20;2.70;;;;;;;21.24;60.41;100363.05;129631;1281;107594;-73
2023/07/14 07:01:49;;;;;;;3.70;2.50;;;;;;;21.22;59.71;100364.61;129385;1270;107521;-74
2023/07/14 07:04:55;;;;;;;3.30;2.80;;;;;;;21.17;60.33;100359.80;129361;1270;106785;-74
2023/07/14 07:08:01;;;;;;;3.60;2.50;;;;;;;21.21;60.30;100365.11;129391;1270;107580;-74
2023/07/14 07:11:06;;;;;;;4.00;2.50;;;;;;;21.29;60.52;100352.57;129448;1271;107577;-74
2023/07/14 07:14:12;;;;;;;3.50;2.20;;;;;;;21.37;59.37;100357.30;129433;1270;108686;-74
2023/07/14 07:17:17;;;;;;;2.90;2.10;;;;;;;21.38;59.11;100356.58;129426;1270;107571;-74
2023/07/14 07:20:23;;;;;;;3.20;2.00;;;;;;;21.45;58.25;100361.30;129377;1270;106142;-73
2023/07/14 07:23:29;;;;;;;3.40;2.00;;;;;;;21.44;57.84;100360.73;129442;1270;107610;-74
2023/07/14 07:26:34;;;;;;;2.90;2.00;;;;;;;21.45;57.37;100358.23;129407;1267;107536;-74
2023/07/14 07:29:42;;;;;;;3.30;2.10;;;;;;;21.44;57.32;100358.89;129364;1268;107636;-74
2023/07/14 07:32:49;;;;;;;2.60;2.30;;;;;;;21.49;57.40;100361.45;129444;1267;107524;-74
2023/07/14 07:35:55;;;;;;;2.90;2.00;;;;;;;21.51;57.48;100353.99;129522;1267;107355;-74
2023/07/14 07:39:00;;;;;;;2.70;2.00;;;;;;;21.53;57.03;100357.45;129487;1269;107282;-74
2023/07/14 07:42:07;;;;;;;4.30;2.40;;;;;;;21.59;58.07;100363.12;129478;1271;106911;-74
2023/07/14 07:45:16;;;;;;;2.60;2.10;;;;;;;21.72;57.72;100363.11;129491;1270;107533;-74
2023/07/14 07:48:21;;;;;;;2.80;2.00;;;;;;;21.75;57.42;100358.02;129469;1270;106869;-74
2023/07/14 07:51:27;;;;;;;3.90;2.30;;;;;;;21.86;58.34;100362.44;129386;1271;107390;-74
2023/07/14 07:54:33;;;;;;;3.70;1.90;;;;;;;22.00;56.83;100367.26;129448;1267;107636;-74
2023/07/14 07:57:38;;;;;;;3.40;2.20;;;;;;;22.05;56.77;100367.23;129495;1270;107394;-74
2023/07/14 08:00:45;;;;;;;2.50;1.80;;;;;;;22.04;55.81;100366.25;129407;1267;107533;-74
2023/07/14 08:03:51;;;;;;;2.40;1.90;;;;;;;22.16;56.45;100364.19;129415;1270;105760;-75
2023/07/14 08:06:56;;;;;;;3.40;1.80;;;;;;;22.24;55.17;100366.34;129451;1271;107681;-74
2023/07/14 08:10:03;;;;;;;3.90;1.90;;;;;;;22.19;55.08;100368.55;129371;1267;108157;-74
2023/07/14 08:13:09;;;;;;;3.00;2.00;;;;;;;22.27;55.46;100372.16;129443;1268;107262;-74
2023/07/14 08:16:14;;;;;;;2.20;2.00;;;;;;;22.30;55.57;100368.82;129391;1270;107418;-74
2023/07/14 08:19:20;;;;;;;2.20;1.90;;;;;;;22.31;55.49;100370.88;129376;1267;108425;-74
2023/07/14 08:22:27;;;;;;;4.30;2.00;;;;;;;22.34;55.35;100372.92;129335;1270;107594;-74
2023/07/14 08:25:32;;;;;;;2.90;2.00;;;;;;;22.38;55.71;100375.36;129359;1270;107430;-74
2023/07/14 08:28:38;;;;;;;3.40;2.00;;;;;;;22.50;56.17;100381.08;129457;1270;107352;-74
2023/07/14 08:31:44;;;;;;;3.20;1.80;;;;;;;22.67;55.80;100381.83;129455;1270;107508;-75
2023/07/14 08:34:49;;;;;;;4.70;2.10;;;;;;;22.80;55.69;100382.27;129326;1270;107487;-75
2023/07/14 08:37:55;;;;;;;2.40;2.00;;;;;;;22.79;54.35;100383.96;129471;1267;107302;-74
2023/07/14 08:41:09;;;;;;;2.50;2.10;;;;;;;22.78;54.48;100383.73;129379;1270;105886;-74
2023/07/14 08:44:55;;;;;;;5.40;2.20;;;;;;;22.86;54.71;100387.84;129368;1270;107600;-74
2023/07/14 08:48:12;;;;;;;3.40;1.90;;;;;;;22.81;54.03;100387.11;128964;1280;107430;-74
2023/07/14 08:51:21;;;;;;;2.20;2.10;;;;;;;22.81;53.97;100391.84;129468;1268;107609;-74
2023/07/14 08:54:35;;;;;;;3.80;1.90;;;;;;;22.86;54.17;100388.86;129477;1268;109287;-75
2023/07/14 08:57:45;;;;;;;2.50;1.60;;;;;;;22.88;52.40;100386.86;129477;1270;107563;-75
2023/07/14 09:01:03;;;;;;;2.80;1.60;;;;;;;22.95;53.54;100382.56;129507;1270;107622;-75
2023/07/14 09:04:20;;;;;;;2.30;1.50;;;;;;;23.09;53.06;100382.55;129529;1270;107651;-75
2023/07/14 09:07:25;;;;;;;4.70;1.90;;;;;;;23.15;51.88;100386.44;129413;1267;107534;-75
2023/07/14 09:10:54;;;;;;;1.70;1.40;;;;;;;23.11;50.66;100388.25;129390;1267;106004;-74
2023/07/14 09:14:27;;;;;;;2.80;1.50;;;;;;;23.00;51.75;100391.11;129437;1270;107648;-75
2023/07/14 09:17:53;;;;;;;2.20;1.60;;;;;;;23.12;52.18;100385.65;129432;1270;106831;-75
2023/07/14 09:21:14;;;;;;;2.00;1.60;;;;;;;23.19;51.51;100393.63;129344;1268;108672;-75
2023/07/14 09:24:31;;;;;;;2.10;1.20;;;;;;;23.29;51.28;100388.11;129207;1273;107599;-75
2023/07/14 09:27:37;;;;;;;3.90;1.30;;;;;;;23.42;52.01;100386.86;129394;1267;106193;-74
2023/07/14 09:30:45;;;;;;;2.00;1.60;;;;;;;23.45;48.00;100388.35;129358;1270;106482;-74
2023/07/14 09:33:56;;;;;;;2.00;1.80;;;;;;;23.35;49.01;100388.13;129403;1270;107431;-74
2023/07/14 09:37:09;;;;;;;2.70;1.60;;;;;;;23.33;47.90;100392.99;129493;1267;107481;-73
2023/07/14 09:40:21;;;;;;;4.00;1.70;;;;;;;23.21;47.35;100383.13;129460;1270;107472;-74
2023/07/14 09:43:26;;;;;;;2.00;1.30;;;;;;;23.17;48.18;100383.34;129375;1268;107579;-74
2023/07/14 09:46:41;;;;;;;1.80;1.40;;;;;;;23.24;47.12;100384.66;129347;1267;107548;-74
2023/07/14 09:49:57;;;;;;;2.30;1.80;;;;;;;23.31;47.97;100379.44;129361;1270;108667;-73
2023/07/14 09:53:07;;;;;;;1.50;1.30;;;;;;;23.34;48.25;100375.04;129385;1268;107549;-75
2023/07/14 09:56:17;;;;;;;3.40;1.70;;;;;;;23.44;47.84;100371.65;129472;1267;105725;-74
2023/07/14 09:59:24;;;;;;;2.30;1.70;;;;;;;23.55;47.67;100367.98;129481;1270;106547;-74
2023/07/14 10:02:31;;;;;;;2.70;1.70;;;;;;;23.57;47.95;100361.54;129480;1270;106469;-74
2023/07/14 10:05:49;;;;;;;2.30;1.60;;;;;;;23.60;48.06;100359.02;129456;1270;107476;-74
2023/07/14 10:08:57;;;;;;;3.20;1.70;;;;;;;23.68;48.81;100350.79;129406;1268;107262;-74
2023/07/14 10:12:06;;;;;;;2.30;1.70;;;;;;;23.76;47.70;100356.98;129345;1267;107532;-74
2023/07/14 10:15:31;;;;;;;2.40;1.70;;;;;;;23.78;48.19;100352.89;129403;1270;107589;-74
2023/07/14 10:18:48;;;;;;;3.00;1.50;;;;;;;23.80;45.93;100363.38;129367;1270;107407;-75
2023/07/14 10:21:58;;;;;;;2.10;1.50;;;;;;;23.78;45.87;100358.80;129412;1270;107527;-74
2023/07/14 10:25:04;;;;;;;2.10;1.50;;;;;;;23.83;47.20;100350.66;129546;1267;106298;-74
2023/07/14 10:28:17;;;;;;;2.40;1.70;;;;;;;23.95;46.57;100349.52;129482;1267;107526;-74
2023/07/14 10:31:30;;;;;;;1.70;1.50;;;;;;;23.85;45.14;100349.58;129488;1270;107499;-74
2023/07/14 10:34:58;;;;;;;1.70;1.40;;;;;;;23.76;46.01;100340.30;129485;1267;108185;-73
2023/07/14 10:38:12;;;;;;;2.70;1.30;;;;;;;23.93;46.72;100341.67;129523;1270;106037;-74
2023/07/14 10:41:19;;;;;;;2.20;1.50;;;;;;;24.10;46.46;100339.76;129427;1267;107636;-74
2023/07/14 10:44:29;;;;;;;2.70;1.20;;;;;;;24.15;45.23;100333.64;129419;1270;107592;-74
2023/07/14 10:47:52;;;;;;;1.80;1.20;;;;;;;24.15;45.03;100330.26;129332;1270;107368;-74
2023/07/14 10:51:04;;;;;;;2.00;1.20;;;;;;;24.16;44.52;100333.78;129367;1267;107580;-74
2023/07/14 10:54:17;;;;;;;1.50;1.30;;;;;;;24.06;43.85;100330.84;129396;1270;107496;-76
2023/07/14 10:57:43;;;;;;;2.60;1.40;;;;;;;23.95;42.86;100325.32;129326;1267;107277;-75
2023/07/14 11:00:52;;;;;;;1.40;1.20;;;;;;;23.94;44.06;100322.69;129427;1267;106415;-75
2023/07/14 11:04:04;;;;;;;1.90;1.50;;;;;;;24.04;44.67;100323.89;129344;1270;107449;-75
2023/07/14 11:07:17;;;;;;;1.50;1.30;;;;;;;24.00;43.98;100322.38;129307;1270;107615;-74
2023/07/14 11:10:32;;;;;;;1.70;1.00;;;;;;;24.08;44.85;100314.08;129334;1270;107405;-74
2023/07/14 11:13:48;;;;;;;2.40;1.30;;;;;;;24.22;42.77;100322.50;129433;1267;107782;-75
2023/07/14 11:17:03;;;;;;;3.40;1.60;;;;;;;24.06;41.86;100324.13;129500;1271;107570;-75
2023/07/14 11:20:18;;;;;;;3.00;1.60;;;;;;;24.01;42.53;100319.66;129303;1267;107126;-74
2023/07/14 11:23:33;;;;;;;2.10;1.20;;;;;;;24.03;42.65;100320.21;129472;1267;107484;-74
2023/07/14 11:26:49;;;;;;;2.50;1.40;;;;;;;24.04;42.12;100324.65;129520;1267;107344;-75
2023/07/14 11:30:00;;;;;;;1.50;1.40;;;;;;;24.12;43.12;100315.75;129481;1270;107309;-75
2023/07/14 11:33:13;;;;;;;1.80;1.40;;;;;;;24.18;43.54;100317.14;129475;1270;107893;-74
2023/07/14 11:36:27;;;;;;;1.70;1.30;;;;;;;24.28;41.87;100320.34;129526;1270;107543;-75
2023/07/14 11:39:43;;;;;;;1.80;1.30;;;;;;;24.25;43.11;100316.77;129485;1270;108706;-74
2023/07/14 11:42:53;;;;;;;3.30;1.30;;;;;;;24.29;41.48;100326.95;129470;1267;107605;-75
2023/07/14 11:46:03;;;;;;;2.40;1.30;;;;;;;24.22;42.52;100311.27;129355;1268;107564;-74
2023/07/14 11:49:24;;;;;;;1.40;1.30;;;;;;;24.32;42.79;100314.83;129494;1267;107248;-74
2023/07/14 11:52:31;;;;;;;2.60;1.20;;;;;;;24.35;42.05;100318.01;129500;1267;108184;-74
2023/07/14 11:55:41;;;;;;;2.90;1.40;;;;;;;24.35;40.98;100317.67;129455;1268;107715;-74
2023/07/14 11:58:50;;;;;;;1.50;1.40;;;;;;;24.31;41.71;100304.85;129540;1270;107748;-75
2023/07/14 12:02:00;;;;;;;2.40;1.30;;;;;;;24.48;42.12;100316.69;129302;1267;107302;-75
2023/07/14 12:05:34;;;;;;;2.10;1.50;;;;;;;24.59;41.58;100313.39;129351;1268;108689;-75
2023/07/14 12:08:41;;;;;;;2.10;1.40;;;;;;;24.54;40.25;100312.84;129498;1267;107328;-75
2023/07/14 12:11:54;;;;;;;1.30;1.10;;;;;;;24.51;41.18;100309.57;129513;1270;107571;-74
2023/07/14 12:15:00;;;;;;;2.00;1.50;;;;;;;24.52;40.48;100312.87;129522;1270;107582;-75
2023/07/14 12:21:55;;;;;;;1.40;1.20;;;;;;;24.58;40.89;100307.41;126919;1295;635298;-75
2023/07/14 12:25:02;;;;;;;1.50;1.20;;;;;;;24.67;41.50;100296.05;130030;1264;107404;-75
2023/07/14 12:28:16;;;;;;;2.10;1.50;;;;;;;24.80;40.81;100300.37;129882;1264;107537;-74
2023/07/14 12:31:22;;;;;;;2.30;1.30;;;;;;;24.82;40.54;100307.73;129763;1269;108223;-75
2023/07/14 12:34:31;;;;;;;2.70;1.40;;;;;;;24.89;40.86;100301.19;130336;1259;111269;-75
2023/07/14 12:37:37;;;;;;;2.00;1.40;;;;;;;24.94;40.24;100300.82;130678;1257;106821;-74
2023/07/14 12:40:43;;;;;;;1.80;1.60;;;;;;;24.85;38.33;100307.38;130646;1256;107264;-74
2023/07/14 12:43:52;;;;;;;2.40;1.60;;;;;;;24.80;39.41;100303.60;130670;1256;107591;-74
2023/07/14 12:46:59;;;;;;;2.30;1.40;;;;;;;24.86;39.98;100297.64;130661;1278;107952;-74
2023/07/14 12:50:05;;;;;;;2.30;1.20;;;;;;;24.94;38.93;100297.83;130681;1258;107550;-74
2023/07/14 12:53:13;;;;;;;3.30;1.50;;;;;;;24.98;39.59;100290.20;130683;1259;108047;-74
2023/07/14 12:56:19;;;;;;;2.40;1.50;;;;;;;25.02;40.18;100288.14;130678;1258;107484;-74
2023/07/14 12:59:24;;;;;;;2.60;1.50;;;;;;;25.03;39.53;100286.41;130731;1254;106390;-74
2023/07/14 13:02:30;;;;;;;1.50;1.30;;;;;;;25.06;39.56;100278.10;130688;1254;107479;-74
2023/07/14 13:05:38;;;;;;;1.70;1.40;;;;;;;25.09;39.11;100274.70;130593;1259;107571;-74
2023/07/14 13:08:47;;;;;;;1.40;1.20;;;;;;;25.16;39.55;100277.98;130555;1277;107404;-74
2023/07/14 13:11:54;;;;;;;1.50;1.20;;;;;;;25.25;39.63;100274.83;130810;1258;107485;-74
2023/07/14 13:15:00;;;;;;;3.20;1.30;;;;;;;25.29;39.79;100272.09;131152;1254;107149;-75
2023/07/14 13:18:10;;;;;;;1.90;1.30;;;;;;;25.35;39.90;100272.94;131190;1254;108585;-74
2023/07/14 13:21:36;;;;;;;2.30;1.30;;;;;;;25.34;37.92;100275.55;131239;1250;107400;-74
2023/07/14 13:24:41;;;;;;;2.70;1.30;;;;;;;25.24;37.80;100272.02;131265;1254;107653;-74
2023/07/14 13:27:47;;;;;;;1.10;1.00;;;;;;;25.26;37.97;100269.76;131191;1253;107542;-74
2023/07/14 13:30:53;;;;;;;1.60;1.50;;;;;;;25.23;37.23;100273.69;131023;1273;107252;-74
2023/07/14 13:33:59;;;;;;;1.50;1.30;;;;;;;25.16;37.48;100267.65;131210;1251;106406;-75
2023/07/14 13:37:07;;;;;;;1.80;1.40;;;;;;;25.09;38.08;100266.08;131048;1254;109371;-75
2023/07/14 13:40:23;;;;;;;2.30;1.40;;;;;;;25.16;38.82;100262.97;130926;1252;107397;-75
2023/07/14 13:43:29;;;;;;;2.40;1.20;;;;;;;25.24;38.88;100259.77;130909;1266;107540;-75
2023/07/14 13:46:38;;;;;;;1.70;1.30;;;;;;;25.23;37.47;100263.86;130944;1254;106874;-74
2023/07/14 13:49:44;;;;;;;1.80;1.50;;;;;;;25.22;37.28;100270.31;130965;1254;107507;-74
2023/07/14 13:52:50;;;;;;;3.10;1.30;;;;;;;25.12;37.25;100268.69;130926;1256;108589;-74
2023/07/14 13:55:55;;;;;;;1.30;1.20;;;;;;;25.08;38.07;100263.39;130953;1254;107548;-74
2023/07/14 13:59:01;;;;;;;1.90;1.20;;;;;;;25.01;37.29;100267.48;131193;1250;108110;-75
2023/07/14 14:02:21;;;;;;;1.40;1.30;;;;;;;25.07;38.09;100264.02;131134;1254;106652;-75
2023/07/14 14:05:30;;;;;;;2.50;1.90;;;;;;;25.11;36.66;100262.13;130956;1268;107233;-75
2023/07/14 14:08:36;;;;;;;2.20;1.30;;;;;;;25.13;37.41;100255.50;130921;1254;107092;-75
2023/07/14 14:11:41;;;;;;;1.40;1.20;;;;;;;25.23;37.40;100250.30;130985;1251;107510;-75
2023/07/14 14:14:47;;;;;;;1.70;1.30;;;;;;;25.32;37.58;100248.85;131043;1254;107589;-74
2023/07/14 14:17:56;;;;;;;1.80;1.40;;;;;;;25.31;36.66;100250.65;130985;1252;107501;-74
2023/07/14 14:21:03;;;;;;;1.60;1.30;;;;;;;25.26;37.65;100250.48;130917;1254;107524;-74